Time;durP1;ratioP1;P1;durP2;ratioP2;P2;SDS_P1;SDS_P2;PMS_P1;PMS_P2;Temp;Humidity;BMP_temperature;BMP_pressure;BME280_temperature;BME280_humidity;BME280_pressure;Samples;Min_cycle;Max_cycle;Signal;HPM_P1;HPM_P2
2020/12/21 00:02:17;;;;;;;23.02;9.32;;;8.30;90.50;;;;;;5019497;28;20116;-72
2020/12/21 00:04:43;;;;;;;18.23;8.52;;;8.30;90.50;;;;;;5021090;28;20034;-72
2020/12/21 00:07:09;;;;;;;16.35;8.55;;;8.20;90.50;;;;;;5018558;28;20099;-72
2020/12/21 00:09:35;;;;;;;13.68;8.40;;;8.20;90.40;;;;;;5016492;28;20105;-72
2020/12/21 00:12:01;;;;;;;17.48;8.77;;;8.20;90.40;;;;;;5019080;28;20537;-72
2020/12/21 00:14:27;;;;;;;14.55;8.73;;;8.20;90.50;;;;;;5016689;28;20508;-72
2020/12/21 00:16:53;;;;;;;21.92;8.98;;;8.20;90.50;;;;;;5018387;28;20057;-72
2020/12/21 00:19:20;;;;;;;17.42;8.63;;;8.20;90.40;;;;;;5019534;28;20025;-72
2020/12/21 00:21:49;;;;;;;14.77;8.20;;;8.20;90.40;;;;;;5018289;28;20104;-72
2020/12/21 00:24:15;;;;;;;17.30;8.98;;;8.10;90.40;;;;;;5020275;28;20025;-72
2020/12/21 00:26:45;;;;;;;15.00;7.95;;;8.10;90.50;;;;;;5002576;28;20033;-72
2020/12/21 00:29:11;;;;;;;17.77;9.53;;;8.10;90.50;;;;;;5019857;28;20408;-72
2020/12/21 00:31:37;;;;;;;13.95;8.45;;;8.10;90.40;;;;;;5019388;28;20033;-72
2020/12/21 00:34:04;;;;;;;16.17;8.93;;;8.10;90.40;;;;;;5020997;28;20508;-72
2020/12/21 00:36:31;;;;;;;14.93;8.90;;;8.10;90.40;;;;;;5003130;28;20509;-72
2020/12/21 00:38:57;;;;;;;17.55;9.02;;;8.10;90.40;;;;;;5018131;28;20099;-72
2020/12/21 00:41:24;;;;;;;17.38;9.10;;;8.10;90.40;;;;;;5018872;28;20477;-72
2020/12/21 00:43:50;;;;;;;19.65;8.60;;;8.10;90.40;;;;;;5016991;28;20026;-72
2020/12/21 00:46:18;;;;;;;16.65;8.02;;;8.10;90.30;;;;;;5021085;28;20032;-72
2020/12/21 00:48:44;;;;;;;14.88;8.85;;;8.10;90.30;;;;;;5017180;28;20017;-72
2020/12/21 00:51:11;;;;;;;16.90;8.65;;;8.00;90.40;;;;;;5017007;28;20056;-72
2020/12/21 00:53:38;;;;;;;18.00;8.48;;;8.00;90.50;;;;;;5018503;28;20125;-72
2020/12/21 00:56:04;;;;;;;17.60;9.00;;;8.00;90.40;;;;;;5019562;28;20112;-72
2020/12/21 00:58:31;;;;;;;18.73;8.52;;;8.00;90.40;;;;;;5019083;28;20386;-72
2020/12/21 01:00:58;;;;;;;15.63;8.60;;;7.90;90.50;;;;;;5021439;28;20022;-72
2020/12/21 01:03:23;;;;;;;17.58;7.75;;;7.90;90.60;;;;;;5019291;28;20026;-72
2020/12/21 01:05:49;;;;;;;15.52;7.22;;;8.00;90.40;;;;;;5017564;28;20237;-72
2020/12/21 01:08:15;;;;;;;14.48;7.32;;;8.00;90.40;;;;;;5019986;28;20029;-72
2020/12/21 01:10:40;;;;;;;13.05;7.53;;;8.00;90.40;;;;;;5002081;28;20033;-72
2020/12/21 01:13:06;;;;;;;16.30;7.47;;;7.90;90.40;;;;;;5020249;28;20129;-72
2020/12/21 01:15:32;;;;;;;13.68;7.25;;;7.90;90.50;;;;;;5018400;28;20038;-72
2020/12/21 01:17:58;;;;;;;13.10;7.10;;;7.90;90.50;;;;;;5001907;28;20033;-72
2020/12/21 01:20:23;;;;;;;14.10;7.07;;;7.80;90.50;;;;;;5017544;28;20778;-72
2020/12/21 01:22:49;;;;;;;12.88;6.85;;;7.80;90.70;;;;;;5003958;28;20030;-72
2020/12/21 01:25:14;;;;;;;17.63;7.05;;;7.80;90.50;;;;;;5019260;28;20022;-72
2020/12/21 01:27:40;;;;;;;16.48;7.43;;;7.90;90.50;;;;;;5004091;28;20119;-72
2020/12/21 01:30:06;;;;;;;18.75;6.72;;;7.80;90.50;;;;;;5020959;28;20026;-72
2020/12/21 01:32:31;;;;;;;13.30;5.97;;;7.80;90.40;;;;;;5023070;28;20041;-72
2020/12/21 01:34:57;;;;;;;16.17;7.13;;;7.70;90.50;;;;;;5024649;28;20037;-72
2020/12/21 01:37:23;;;;;;;12.50;6.00;;;7.80;90.50;;;;;;5022474;28;20132;-72
2020/12/21 01:39:48;;;;;;;15.55;6.35;;;7.80;90.50;;;;;;5025055;28;20040;-72
2020/12/21 01:42:18;;;;;;;12.65;6.20;;;7.80;90.40;;;;;;5006572;28;20478;-72
2020/12/21 01:44:47;;;;;;;12.85;5.57;;;7.70;90.50;;;;;;5030639;28;20485;-72
2020/12/21 01:47:13;;;;;;;13.68;5.82;;;7.70;90.60;;;;;;5022340;28;20033;-72
2020/12/21 01:49:39;;;;;;;15.23;6.05;;;7.70;90.60;;;;;;5019529;28;20030;-72
2020/12/21 01:52:08;;;;;;;12.88;6.10;;;7.60;90.70;;;;;;5023996;28;20037;-72
2020/12/21 01:54:34;;;;;;;12.48;6.22;;;7.60;90.80;;;;;;5020874;28;20021;-72
2020/12/21 01:57:00;;;;;;;11.60;6.60;;;7.60;90.90;;;;;;5022244;28;20417;-72
2020/12/21 01:59:26;;;;;;;12.07;5.90;;;7.60;90.90;;;;;;5024729;28;20041;-72
2020/12/21 02:01:53;;;;;;;14.82;5.88;;;7.60;91.00;;;;;;5022687;28;20029;-72
2020/12/21 02:04:22;;;;;;;13.38;5.90;;;7.70;90.90;;;;;;5022178;28;20056;-72
2020/12/21 02:06:48;;;;;;;11.65;5.38;;;7.70;90.80;;;;;;5035260;28;20508;-72
2020/12/21 02:09:14;;;;;;;13.55;5.65;;;7.70;90.90;;;;;;5021322;28;20629;-72
2020/12/21 02:11:41;;;;;;;12.90;5.50;;;7.70;90.90;;;;;;5022977;28;20497;-72
2020/12/21 02:14:07;;;;;;;16.80;5.90;;;7.70;90.90;;;;;;5022846;28;20066;-72
2020/12/21 02:16:33;;;;;;;14.80;5.57;;;7.70;90.90;;;;;;5019038;28;20088;-72
2020/12/21 02:18:58;;;;;;;11.73;5.25;;;7.70;90.90;;;;;;5022812;28;20065;-72
2020/12/21 02:21:24;;;;;;;19.73;5.97;;;7.70;90.90;;;;;;5020439;28;20030;-72
2020/12/21 02:23:50;;;;;;;17.85;5.90;;;7.70;90.90;;;;;;5022217;28;20025;-72
2020/12/21 02:26:16;;;;;;;11.13;5.55;;;7.80;91.00;;;;;;5022084;28;20029;-72
2020/12/21 02:28:41;;;;;;;9.82;4.95;;;7.80;91.00;;;;;;5021296;28;20379;-72
2020/12/21 02:31:07;;;;;;;12.77;5.57;;;7.80;91.00;;;;;;5021804;28;20033;-72
2020/12/21 02:33:34;;;;;;;17.27;5.65;;;7.80;91.00;;;;;;5004423;28;20508;-72
2020/12/21 02:35:59;;;;;;;14.63;5.75;;;7.80;91.00;;;;;;5019646;28;20038;-72
2020/12/21 02:38:25;;;;;;;16.17;5.80;;;7.80;91.00;;;;;;5020127;28;20497;-72
2020/12/21 02:40:51;;;;;;;13.18;5.85;;;7.80;91.00;;;;;;5020009;28;20029;-72
2020/12/21 02:43:16;;;;;;;14.27;5.25;;;7.80;90.90;;;;;;5020959;28;20037;-72
2020/12/21 02:45:42;;;;;;;13.60;5.40;;;7.90;90.70;;;;;;5021169;28;20048;-72
2020/12/21 02:48:08;;;;;;;15.30;5.75;;;7.90;90.80;;;;;;5023173;28;20033;-72
2020/12/21 02:50:33;;;;;;;12.63;6.20;;;7.90;90.70;;;;;;5021275;28;20026;-72
2020/12/21 02:52:59;;;;;;;12.45;5.47;;;7.80;90.70;;;;;;5020951;28;20509;-71
2020/12/21 02:55:25;;;;;;;13.80;5.80;;;7.80;90.70;;;;;;5020517;28;20029;-72
2020/12/21 02:57:50;;;;;;;14.32;5.82;;;7.80;90.70;;;;;;5020800;28;20067;-72
2020/12/21 03:00:16;;;;;;;12.13;5.60;;;7.80;90.80;;;;;;5020892;28;20022;-71
2020/12/21 03:02:42;;;;;;;13.02;6.07;;;7.80;90.80;;;;;;5019099;28;20035;-72
2020/12/21 03:05:08;;;;;;;14.43;5.95;;;7.80;90.80;;;;;;5020081;28;20432;-72
2020/12/21 03:07:34;;;;;;;17.70;5.75;;;7.80;90.80;;;;;;5003556;28;20057;-72
2020/12/21 03:10:00;;;;;;;12.05;6.10;;;7.80;90.70;;;;;;5020671;28;20025;-72
2020/12/21 03:12:25;;;;;;;10.32;5.60;;;7.80;90.70;;;;;;5020817;28;20046;-71
2020/12/21 03:14:51;;;;;;;14.43;5.80;;;7.70;90.80;;;;;;5020943;28;20052;-72
2020/12/21 03:17:17;;;;;;;15.15;6.20;;;7.70;90.90;;;;;;5020490;28;20022;-71
2020/12/21 03:19:42;;;;;;;17.63;6.75;;;7.70;90.90;;;;;;5018368;28;20036;-72
2020/12/21 03:22:08;;;;;;;14.50;5.63;;;7.70;90.90;;;;;;5003554;28;20026;-72
2020/12/21 03:24:34;;;;;;;14.43;6.25;;;7.70;90.90;;;;;;5018929;28;20022;-72
2020/12/21 03:27:00;;;;;;;12.70;5.90;;;7.70;90.90;;;;;;5021586;28;20054;-72
2020/12/21 03:29:25;;;;;;;18.95;6.07;;;7.70;90.90;;;;;;5019640;28;20063;-72
2020/12/21 03:31:51;;;;;;;12.93;5.60;;;7.70;90.90;;;;;;5019384;28;20634;-72
2020/12/21 03:34:17;;;;;;;12.27;5.97;;;7.70;91.00;;;;;;5018343;28;20067;-72
2020/12/21 03:36:43;;;;;;;11.18;6.55;;;7.60;91.00;;;;;;5018771;28;20030;-72
2020/12/21 03:39:09;;;;;;;14.80;6.85;;;7.60;91.00;;;;;;5024136;28;20029;-72
2020/12/21 03:41:35;;;;;;;19.60;6.55;;;7.70;91.00;;;;;;5019419;28;20425;-72
2020/12/21 03:44:02;;;;;;;17.42;6.95;;;7.70;91.00;;;;;;5017845;28;20042;-72
2020/12/21 03:46:28;;;;;;;11.20;6.35;;;7.70;91.00;;;;;;5024411;28;20590;-69
2020/12/21 03:48:53;;;;;;;14.52;6.88;;;7.70;91.10;;;;;;5018347;28;20041;-70
2020/12/21 03:51:19;;;;;;;18.15;6.82;;;7.60;91.10;;;;;;5020900;28;20507;-70
2020/12/21 03:53:45;;;;;;;12.13;6.05;;;7.60;91.20;;;;;;5017758;28;20080;-70
2020/12/21 03:56:10;;;;;;;14.55;6.50;;;7.60;91.20;;;;;;5008117;28;20072;-72
2020/12/21 03:58:36;;;;;;;15.73;6.63;;;7.60;91.10;;;;;;5020559;28;20032;-72
2020/12/21 04:01:02;;;;;;;13.35;6.80;;;7.60;91.20;;;;;;5020087;28;20033;-72
2020/12/21 04:03:31;;;;;;;14.75;7.35;;;7.70;91.20;;;;;;5009413;28;20028;-72
2020/12/21 04:05:57;;;;;;;14.32;6.93;;;7.70;91.20;;;;;;5019420;28;20035;-72
2020/12/21 04:08:23;;;;;;;14.57;7.10;;;7.60;91.20;;;;;;5018699;28;20112;-72
2020/12/21 04:10:49;;;;;;;19.52;7.22;;;7.60;91.20;;;;;;5020504;28;20041;-72
2020/12/21 04:13:14;;;;;;;16.92;6.97;;;7.70;91.20;;;;;;5018181;28;20036;-72
2020/12/21 04:15:40;;;;;;;16.25;7.00;;;7.70;91.00;;;;;;5020049;28;20400;-72
2020/12/21 04:18:06;;;;;;;17.83;8.00;;;7.70;91.10;;;;;;5021346;28;20029;-72
2020/12/21 04:20:32;;;;;;;21.95;7.50;;;7.70;91.00;;;;;;5019314;28;20492;-69
2020/12/21 04:22:58;;;;;;;14.32;7.10;;;7.70;91.10;;;;;;5019280;28;20034;-69
2020/12/21 04:25:24;;;;;;;15.50;7.82;;;7.70;91.10;;;;;;5019802;28;20500;-72
2020/12/21 04:27:50;;;;;;;19.95;8.95;;;7.80;91.10;;;;;;5002319;28;20034;-69
2020/12/21 04:30:15;;;;;;;15.88;7.72;;;7.70;91.00;;;;;;5020610;28;20022;-71
2020/12/21 04:32:41;;;;;;;17.55;8.05;;;7.80;90.90;;;;;;5043694;28;20611;-70
2020/12/21 04:35:07;;;;;;;18.15;8.75;;;7.90;90.80;;;;;;5019602;28;20034;-70
2020/12/21 04:37:33;;;;;;;19.73;8.35;;;7.90;90.80;;;;;;5019815;28;20596;-70
2020/12/21 04:39:59;;;;;;;14.40;8.02;;;7.90;90.80;;;;;;5019537;28;20026;-70
2020/12/21 04:42:25;;;;;;;21.65;8.80;;;7.80;90.80;;;;;;5021156;28;20392;-70
2020/12/21 04:44:51;;;;;;;13.55;7.53;;;7.90;90.80;;;;;;5007020;28;20109;-70
2020/12/21 04:47:18;;;;;;;19.35;8.18;;;7.90;90.80;;;;;;5005964;28;20033;-70
2020/12/21 04:49:45;;;;;;;22.48;8.35;;;7.90;90.90;;;;;;5018674;28;20033;-70
2020/12/21 04:52:12;;;;;;;13.88;8.00;;;7.90;90.90;;;;;;5027767;28;20049;-70
2020/12/21 04:54:39;;;;;;;23.75;8.18;;;7.90;90.80;;;;;;5022690;28;20258;-71
2020/12/21 04:57:05;;;;;;;21.15;8.48;;;7.90;90.70;;;;;;5020050;28;20029;-71
2020/12/21 04:59:31;;;;;;;18.40;8.05;;;7.90;90.70;;;;;;5015928;28;20029;-70
2020/12/21 05:01:57;;;;;;;19.27;7.88;;;7.90;90.70;;;;;;5017923;28;20029;-70
2020/12/21 05:04:24;;;;;;;21.42;8.07;;;8.00;90.50;;;;;;5018008;28;20022;-70
2020/12/21 05:06:59;;;;;;;18.92;7.38;;;8.00;90.50;;;;;;5023915;28;20479;-71
2020/12/21 05:09:25;;;;;;;18.00;7.93;;;8.00;90.50;;;;;;5022181;28;20079;-71
2020/12/21 05:12:06;;;;;;;21.80;9.07;;;8.00;90.40;;;;;;5029050;28;20032;-71
2020/12/21 05:14:37;;;;;;;17.63;7.68;;;8.10;90.30;;;;;;5009176;28;20030;-71
2020/12/21 05:17:14;;;;;;;20.05;7.90;;;8.00;90.30;;;;;;5024597;28;20075;-71
2020/12/21 05:19:40;;;;;;;18.77;7.43;;;8.10;90.30;;;;;;5020386;28;20036;-71
2020/12/21 05:22:13;;;;;;;26.13;8.13;;;8.00;90.30;;;;;;5024313;28;20109;-71
2020/12/21 05:24:39;;;;;;;22.23;8.05;;;8.00;90.40;;;;;;5038872;28;20025;-71
2020/12/21 05:27:18;;;;;;;22.63;8.07;;;8.00;90.50;;;;;;5023516;28;20021;-71
2020/12/21 05:30:03;;;;;;;17.52;7.82;;;8.00;90.50;;;;;;5022938;28;20030;-71
2020/12/21 05:32:28;;;;;;;18.85;8.63;;;7.90;90.50;;;;;;5022934;28;20022;-71
2020/12/21 05:35:07;;;;;;;13.10;7.75;;;8.00;90.50;;;;;;5023908;28;20109;-71
2020/12/21 05:37:35;;;;;;;20.67;8.63;;;7.90;90.80;;;;;;5022530;28;20030;-70
2020/12/21 05:40:03;;;;;;;16.67;8.32;;;7.90;90.70;;;;;;5005967;28;20107;-70
2020/12/21 05:42:28;;;;;;;21.55;9.18;;;7.90;90.70;;;;;;5023790;28;20026;-70
2020/12/21 05:44:58;;;;;;;23.63;9.85;;;7.90;90.70;;;;;;5005254;28;20036;-70
2020/12/21 05:47:26;;;;;;;21.10;8.98;;;7.90;90.70;;;;;;5013077;28;20052;-70
2020/12/21 05:49:53;;;;;;;16.75;8.80;;;7.90;90.70;;;;;;5022480;28;20030;-70
2020/12/21 05:52:29;;;;;;;23.17;9.38;;;7.90;90.80;;;;;;5022921;28;20054;-70
2020/12/21 05:54:55;;;;;;;18.60;8.10;;;7.90;90.80;;;;;;5004804;28;20030;-70
2020/12/21 05:57:23;;;;;;;18.48;8.10;;;7.90;90.80;;;;;;5020167;28;20088;-70
2020/12/21 05:59:49;;;;;;;17.38;8.00;;;7.90;90.80;;;;;;5021363;28;20033;-70
2020/12/21 06:02:19;;;;;;;19.42;8.05;;;7.90;90.70;;;;;;5021682;28;20176;-70
2020/12/21 06:04:49;;;;;;;15.07;7.32;;;7.90;90.70;;;;;;5023197;28;20033;-70
2020/12/21 06:07:22;;;;;;;22.45;7.63;;;7.90;90.70;;;;;;5022343;28;20488;-70
2020/12/21 06:09:51;;;;;;;15.63;7.68;;;7.90;90.70;;;;;;5021977;28;20421;-70
2020/12/21 06:12:22;;;;;;;19.67;7.82;;;7.90;90.70;;;;;;5020559;28;20044;-70
2020/12/21 06:14:49;;;;;;;19.50;7.32;;;7.90;90.60;;;;;;5022600;28;20033;-70
2020/12/21 06:17:15;;;;;;;23.60;8.35;;;7.90;90.60;;;;;;5021388;28;20033;-70
2020/12/21 06:19:40;;;;;;;16.85;8.35;;;7.90;90.70;;;;;;5021994;28;20127;-70
2020/12/21 06:22:06;;;;;;;20.90;8.38;;;7.90;90.70;;;;;;5021423;28;20029;-71
2020/12/21 06:24:38;;;;;;;15.70;7.18;;;7.90;90.70;;;;;;5038615;28;20060;-70
2020/12/21 06:27:14;;;;;;;16.77;7.55;;;7.90;90.80;;;;;;5005883;28;20030;-70
2020/12/21 06:29:40;;;;;;;14.07;7.85;;;7.90;90.70;;;;;;5004011;28;20573;-70
2020/12/21 06:32:07;;;;;;;14.48;8.10;;;7.90;90.70;;;;;;5020594;28;20030;-70
2020/12/21 06:34:35;;;;;;;16.95;7.70;;;7.90;90.70;;;;;;5023673;28;20160;-70
2020/12/21 06:37:03;;;;;;;20.02;7.93;;;7.90;90.70;;;;;;5005284;28;20493;-70
2020/12/21 06:39:29;;;;;;;19.63;8.15;;;7.90;90.70;;;;;;5028022;28;20039;-70
2020/12/21 06:42:09;;;;;;;20.70;7.35;;;7.90;90.70;;;;;;5020375;28;20388;-70
2020/12/21 06:44:44;;;;;;;16.70;7.47;;;7.90;90.70;;;;;;5024444;28;20497;-71
2020/12/21 06:47:11;;;;;;;17.98;7.72;;;7.90;90.70;;;;;;5024625;28;20436;-70
2020/12/21 06:49:38;;;;;;;22.45;7.65;;;8.00;90.50;;;;;;5021756;28;20029;-70
2020/12/21 06:52:04;;;;;;;17.85;7.28;;;8.00;90.50;;;;;;5022276;28;20112;-70
2020/12/21 06:54:30;;;;;;;16.25;7.00;;;7.90;90.50;;;;;;5020712;28;20057;-70
2020/12/21 06:56:56;;;;;;;20.38;7.45;;;7.90;90.60;;;;;;5021047;28;20080;-71
2020/12/21 06:59:23;;;;;;;14.15;6.13;;;7.90;90.60;;;;;;5019906;28;20512;-70
2020/12/21 07:01:50;;;;;;;16.33;7.45;;;7.90;90.60;;;;;;5019181;28;20034;-71
2020/12/21 07:04:18;;;;;;;21.50;7.40;;;7.90;90.60;;;;;;5022962;28;20033;-71
2020/12/21 07:06:44;;;;;;;21.23;8.07;;;7.90;90.60;;;;;;5020098;28;20032;-70
2020/12/21 07:09:12;;;;;;;21.15;6.93;;;7.80;90.50;;;;;;5004872;28;20040;-71
2020/12/21 07:11:39;;;;;;;15.38;6.40;;;7.80;90.50;;;;;;5004613;28;20026;-70
2020/12/21 07:14:05;;;;;;;14.05;6.53;;;7.80;90.60;;;;;;5003707;28;20026;-70
2020/12/21 07:16:31;;;;;;;20.65;6.95;;;7.70;90.60;;;;;;5022503;28;20452;-71
2020/12/21 07:18:57;;;;;;;15.40;6.57;;;7.70;90.60;;;;;;5001536;28;20042;-71
2020/12/21 07:21:23;;;;;;;20.95;8.32;;;7.70;90.60;;;;;;5025591;28;20670;-71
2020/12/21 07:23:49;;;;;;;18.67;6.88;;;7.70;90.70;;;;;;5024889;28;20030;-76
2020/12/21 07:26:15;;;;;;;15.18;7.75;;;7.60;90.70;;;;;;5008917;28;20374;-76
2020/12/21 07:28:46;;;;;;;17.30;7.10;;;7.60;90.80;;;;;;5010137;28;20041;-75
2020/12/21 07:31:17;;;;;;;21.80;7.32;;;7.60;90.90;;;;;;5042384;28;20029;-72
2020/12/21 07:33:53;;;;;;;18.42;8.48;;;7.60;90.80;;;;;;5005183;28;20053;-70
2020/12/21 07:36:21;;;;;;;19.50;7.57;;;7.50;90.90;;;;;;5022374;28;20044;-72
2020/12/21 07:38:46;;;;;;;21.92;7.82;;;7.50;90.80;;;;;;5027321;28;20052;-74
2020/12/21 07:41:14;;;;;;;16.35;6.80;;;7.50;90.80;;;;;;5025130;28;20044;-71
2020/12/21 07:43:43;;;;;;;16.10;7.13;;;7.50;90.90;;;;;;5022450;28;20033;-73
2020/12/21 07:46:21;;;;;;;17.60;6.82;;;7.50;90.80;;;;;;5025241;28;20407;-73
2020/12/21 07:48:49;;;;;;;17.70;7.88;;;7.50;90.70;;;;;;5019933;28;20038;-74
2020/12/21 07:51:19;;;;;;;18.73;6.82;;;7.50;90.80;;;;;;5040490;28;20037;-71
2020/12/21 07:53:45;;;;;;;22.25;7.70;;;7.50;90.80;;;;;;5022691;28;20053;-73
2020/12/21 07:56:16;;;;;;;24.58;8.52;;;7.40;90.90;;;;;;5008641;28;20030;-72
2020/12/21 07:58:42;;;;;;;18.17;7.50;;;7.40;90.90;;;;;;5025026;28;20029;-73
2020/12/21 08:01:07;;;;;;;15.75;7.20;;;7.40;90.90;;;;;;5019197;28;20041;-74
2020/12/21 08:03:39;;;;;;;17.50;7.45;;;7.50;90.80;;;;;;5022504;28;20517;-72
2020/12/21 08:06:16;;;;;;;15.50;6.82;;;7.40;90.90;;;;;;5024443;28;20757;-73
2020/12/21 08:08:42;;;;;;;24.55;7.75;;;7.40;90.90;;;;;;5022248;28;20073;-72
2020/12/21 08:11:13;;;;;;;18.92;7.68;;;7.40;90.90;;;;;;5023950;28;20029;-72
2020/12/21 08:13:41;;;;;;;14.02;7.25;;;7.50;90.80;;;;;;5028858;28;20039;-74
2020/12/21 08:16:08;;;;;;;17.10;6.05;;;7.40;90.80;;;;;;5031059;28;20120;-73
2020/12/21 08:18:34;;;;;;;15.70;6.13;;;7.40;90.90;;;;;;5027429;28;20065;-74
2020/12/21 08:21:00;;;;;;;18.38;7.20;;;7.40;90.80;;;;;;5005181;28;20056;-73
2020/12/21 08:23:29;;;;;;;20.08;6.93;;;7.40;90.70;;;;;;5025880;28;20033;-73
2020/12/21 08:25:56;;;;;;;25.00;7.50;;;7.50;90.70;;;;;;5023454;28;20018;-73
2020/12/21 08:28:25;;;;;;;17.65;6.80;;;7.50;90.80;;;;;;5027995;28;20034;-74
2020/12/21 08:31:02;;;;;;;16.83;6.25;;;7.40;90.80;;;;;;5002482;28;20025;-73
2020/12/21 08:33:28;;;;;;;13.30;5.90;;;7.40;90.70;;;;;;5008796;28;20022;-73
2020/12/21 08:35:53;;;;;;;13.93;5.32;;;7.40;90.70;;;;;;5022124;28;20028;-73
2020/12/21 08:38:21;;;;;;;16.55;5.63;;;7.40;90.70;;;;;;5006528;28;20022;-73
2020/12/21 08:40:56;;;;;;;15.50;5.72;;;7.40;90.70;;;;;;5027924;28;20034;-70
2020/12/21 08:43:22;;;;;;;21.95;6.38;;;7.40;90.70;;;;;;5027886;28;20112;-70
2020/12/21 08:45:48;;;;;;;12.93;5.85;;;7.40;90.80;;;;;;5022402;28;20137;-70
2020/12/21 08:48:14;;;;;;;15.95;6.13;;;7.40;90.70;;;;;;5022632;28;20038;-73
2020/12/21 08:50:40;;;;;;;18.23;5.93;;;7.40;90.70;;;;;;5004130;28;20046;-71
2020/12/21 08:53:05;;;;;;;11.32;5.47;;;7.30;90.80;;;;;;5024446;28;20435;-69
2020/12/21 08:55:31;;;;;;;21.58;5.28;;;7.40;90.70;;;;;;5022608;28;20481;-69
2020/12/21 08:57:57;;;;;;;15.55;5.65;;;7.40;90.60;;;;;;5019610;28;20075;-70
2020/12/21 09:00:22;;;;;;;14.43;4.97;;;7.40;90.60;;;;;;5016117;28;20044;-70
2020/12/21 09:02:48;;;;;;;18.90;5.25;;;7.50;90.50;;;;;;5020210;28;20121;-70
2020/12/21 09:05:14;;;;;;;22.77;5.55;;;7.50;90.60;;;;;;5001564;28;20045;-71
2020/12/21 09:07:39;;;;;;;15.52;5.20;;;7.50;90.70;;;;;;5023448;28;20096;-70
2020/12/21 09:10:05;;;;;;;12.15;4.93;;;7.50;90.40;;;;;;5016387;28;20104;-71
2020/12/21 09:12:32;;;;;;;15.05;4.28;;;7.50;90.30;;;;;;5023602;28;20033;-70
2020/12/21 09:14:58;;;;;;;12.43;4.60;;;7.50;90.30;;;;;;5017670;28;20025;-71
2020/12/21 09:17:24;;;;;;;17.95;4.57;;;7.50;90.40;;;;;;5021438;28;20405;-70
2020/12/21 09:19:49;;;;;;;10.50;4.00;;;7.50;90.40;;;;;;5020801;28;20030;-69
2020/12/21 09:22:15;;;;;;;15.23;5.25;;;7.50;90.50;;;;;;5017626;28;20033;-70
2020/12/21 09:24:41;;;;;;;13.93;4.43;;;7.50;90.50;;;;;;5019753;28;20128;-70
2020/12/21 09:27:06;;;;;;;12.70;4.57;;;7.50;90.40;;;;;;5021487;28;20042;-71
2020/12/21 09:29:32;;;;;;;8.77;3.90;;;7.50;90.40;;;;;;5021223;28;20021;-70
2020/12/21 09:31:59;;;;;;;12.55;4.22;;;7.60;90.40;;;;;;5020372;28;20029;-69
2020/12/21 09:34:24;;;;;;;23.30;5.82;;;7.60;90.30;;;;;;5019957;28;20432;-69
2020/12/21 09:36:50;;;;;;;10.25;4.10;;;7.60;90.10;;;;;;5019871;28;20030;-70
2020/12/21 09:39:16;;;;;;;9.25;3.58;;;7.70;90.10;;;;;;5019296;28;20025;-69
2020/12/21 09:41:41;;;;;;;16.13;5.30;;;7.60;90.10;;;;;;5018701;28;20030;-70
2020/12/21 09:44:07;;;;;;;10.38;4.20;;;7.70;90.10;;;;;;5020410;28;20079;-70
2020/12/21 09:46:33;;;;;;;13.00;4.30;;;7.70;90.10;;;;;;5020453;28;20029;-70
2020/12/21 09:49:03;;;;;;;18.10;4.32;;;7.70;89.80;;;;;;5019566;28;20041;-71
2020/12/21 09:51:32;;;;;;;16.17;4.00;;;7.70;89.90;;;;;;5002745;28;20044;-69
2020/12/21 09:53:58;;;;;;;11.90;4.47;;;7.70;90.00;;;;;;5021099;28;20061;-70
2020/12/21 09:56:24;;;;;;;17.17;4.72;;;7.80;89.70;;;;;;5022054;28;20047;-69
2020/12/21 09:58:49;;;;;;;12.60;4.05;;;7.80;89.50;;;;;;5021866;28;20401;-71
2020/12/21 10:01:15;;;;;;;12.68;4.35;;;7.80;89.40;;;;;;5023119;28;20103;-70
2020/12/21 10:03:41;;;;;;;12.52;3.53;;;7.80;89.40;;;;;;5023374;28;20032;-71
2020/12/21 10:06:09;;;;;;;9.45;4.07;;;7.80;89.20;;;;;;5032011;28;20017;-73
2020/12/21 10:08:36;;;;;;;13.68;4.05;;;7.80;89.40;;;;;;5022834;28;20052;-71
2020/12/21 10:11:01;;;;;;;11.48;4.35;;;7.80;89.20;;;;;;5016192;28;20068;-71
2020/12/21 10:13:27;;;;;;;12.05;3.38;;;7.90;88.90;;;;;;5036161;28;20094;-71
2020/12/21 10:15:53;;;;;;;12.40;3.47;;;7.90;88.70;;;;;;5016213;28;20121;-73
2020/12/21 10:18:18;;;;;;;15.88;3.53;;;8.00;88.40;;;;;;5018962;28;20054;-70
2020/12/21 10:20:44;;;;;;;10.35;3.70;;;8.00;88.30;;;;;;5018293;28;20045;-72
2020/12/21 10:23:10;;;;;;;8.57;3.20;;;8.00;88.40;;;;;;5021199;28;20061;-71
2020/12/21 10:25:35;;;;;;;11.35;3.90;;;8.00;88.50;;;;;;5016869;28;20028;-72
2020/12/21 10:28:01;;;;;;;11.45;3.40;;;8.10;88.30;;;;;;5020733;28;20064;-75
2020/12/21 10:30:27;;;;;;;7.63;3.45;;;8.10;87.90;;;;;;5017808;28;20057;-71
2020/12/21 10:32:52;;;;;;;15.27;4.30;;;8.10;87.80;;;;;;5018192;28;20477;-71
2020/12/21 10:35:18;;;;;;;10.48;3.20;;;8.20;87.40;;;;;;5015444;28;20034;-72
2020/12/21 10:37:45;;;;;;;10.27;3.20;;;8.30;87.30;;;;;;5017673;28;20038;-73
2020/12/21 10:40:11;;;;;;;11.20;4.03;;;8.30;87.60;;;;;;5007884;28;20029;-70
2020/12/21 10:42:36;;;;;;;12.52;3.78;;;8.30;87.40;;;;;;5022516;28;20118;-72
2020/12/21 10:45:02;;;;;;;10.52;3.67;;;8.30;87.50;;;;;;5019189;28;20134;-71
2020/12/21 10:47:30;;;;;;;14.32;3.90;;;8.30;87.50;;;;;;5021430;28;20066;-71
2020/12/21 10:49:56;;;;;;;15.77;3.55;;;8.30;87.20;;;;;;5022192;28;20032;-70
2020/12/21 10:52:21;;;;;;;14.85;4.03;;;8.30;87.00;;;;;;5017861;28;20026;-73
2020/12/21 10:54:47;;;;;;;14.45;3.67;;;8.30;87.00;;;;;;5023554;28;20061;-72
2020/12/21 10:57:13;;;;;;;9.07;3.15;;;8.40;86.60;;;;;;5021370;28;20037;-70
2020/12/21 10:59:38;;;;;;;12.30;3.80;;;8.50;86.10;;;;;;5020761;28;20025;-73
2020/12/21 11:02:04;;;;;;;8.07;3.13;;;8.50;86.60;;;;;;5018169;28;20096;-74
2020/12/21 11:04:30;;;;;;;8.15;2.97;;;8.50;86.50;;;;;;5020803;28;20096;-71
2020/12/21 11:06:56;;;;;;;11.82;3.17;;;8.40;86.50;;;;;;5020269;28;20076;-71
2020/12/21 11:09:22;;;;;;;9.65;3.85;;;8.50;86.40;;;;;;5019137;28;20045;-69
2020/12/21 11:11:47;;;;;;;16.13;3.95;;;8.60;85.90;;;;;;5020369;28;20445;-70
2020/12/21 11:14:13;;;;;;;12.27;2.85;;;8.60;86.20;;;;;;5015440;28;20022;-71
2020/12/21 11:16:39;;;;;;;15.63;3.03;;;8.60;85.70;;;;;;5018112;28;20021;-70
2020/12/21 11:19:04;;;;;;;13.40;2.70;;;8.60;85.00;;;;;;5021008;28;20030;-70
2020/12/21 11:21:37;;;;;;;9.10;2.60;;;8.70;84.60;;;;;;5021919;28;20041;-71
2020/12/21 11:24:03;;;;;;;6.55;2.55;;;8.80;84.00;;;;;;5021212;28;20473;-69
2020/12/21 11:26:29;;;;;;;8.93;3.10;;;8.70;84.20;;;;;;5017378;28;20072;-70
2020/12/21 11:28:55;;;;;;;8.32;2.15;;;8.70;84.60;;;;;;5025712;28;20057;-71
2020/12/21 11:31:20;;;;;;;15.02;3.45;;;8.70;84.80;;;;;;5029454;28;20029;-71
2020/12/21 11:33:46;;;;;;;6.88;2.60;;;8.70;84.80;;;;;;5023071;28;20068;-71
2020/12/21 11:36:12;;;;;;;14.43;2.90;;;8.70;84.30;;;;;;5019719;28;20025;-69
2020/12/21 11:38:38;;;;;;;16.40;3.88;;;8.80;84.20;;;;;;5019694;28;20382;-70
2020/12/21 11:41:05;;;;;;;10.57;2.50;;;8.80;84.20;;;;;;5019648;28;20025;-70
2020/12/21 11:43:31;;;;;;;8.70;2.72;;;8.80;83.90;;;;;;5020848;28;20033;-70
2020/12/21 11:45:56;;;;;;;8.48;2.42;;;8.80;83.90;;;;;;5022951;28;20163;-70
2020/12/21 11:48:22;;;;;;;9.18;2.45;;;8.80;83.30;;;;;;5020330;28;21863;-70
2020/12/21 11:50:48;;;;;;;11.55;2.47;;;9.00;82.80;;;;;;5021040;28;20041;-72
2020/12/21 11:53:14;;;;;;;10.20;2.25;;;8.90;82.90;;;;;;5020668;28;20029;-73
2020/12/21 11:55:39;;;;;;;10.02;2.40;;;8.90;83.20;;;;;;5020718;28;20029;-70
2020/12/21 11:58:05;;;;;;;7.57;2.60;;;8.90;82.80;;;;;;5020385;28;20113;-70
2020/12/21 12:00:31;;;;;;;9.77;2.38;;;9.00;82.50;;;;;;5019679;28;20029;-71
2020/12/21 12:02:57;;;;;;;10.98;2.65;;;9.00;82.10;;;;;;5021623;28;20133;-70
2020/12/21 12:05:22;;;;;;;12.75;2.92;;;9.00;82.40;;;;;;5021253;28;20036;-73
2020/12/21 12:07:48;;;;;;;8.85;2.88;;;9.00;82.10;;;;;;5023106;28;20570;-70
2020/12/21 12:10:14;;;;;;;15.52;2.50;;;9.00;82.10;;;;;;5004771;28;20136;-71
2020/12/21 12:12:39;;;;;;;10.32;2.42;;;8.90;82.50;;;;;;5018543;28;20073;-71
2020/12/21 12:15:05;;;;;;;12.02;2.92;;;8.90;82.50;;;;;;5019112;28;20065;-71
2020/12/21 12:17:31;;;;;;;9.48;2.50;;;9.00;82.50;;;;;;5019208;28;20097;-70
2020/12/21 12:19:57;;;;;;;9.10;2.15;;;9.00;82.60;;;;;;5018567;28;20069;-71
2020/12/21 12:22:22;;;;;;;11.95;2.38;;;9.00;82.10;;;;;;5020465;28;20021;-71
2020/12/21 12:24:48;;;;;;;13.45;2.92;;;9.00;81.90;;;;;;5021827;28;20476;-71
2020/12/21 12:27:13;;;;;;;9.15;2.53;;;9.00;82.00;;;;;;5021374;28;20029;-71
2020/12/21 12:29:39;;;;;;;10.35;2.30;;;9.00;82.10;;;;;;5018732;28;20034;-70
2020/12/21 12:32:05;;;;;;;10.90;2.30;;;9.00;82.30;;;;;;5016702;28;20033;-69
2020/12/21 12:34:31;;;;;;;9.10;2.53;;;8.90;82.20;;;;;;4999083;28;20044;-70
2020/12/21 12:36:57;;;;;;;9.23;2.67;;;8.90;81.80;;;;;;5018176;28;20417;-68
2020/12/21 12:39:22;;;;;;;7.00;2.28;;;9.00;81.40;;;;;;5017283;28;20037;-70
2020/12/21 12:41:48;;;;;;;7.22;2.00;;;9.00;81.40;;;;;;5018738;28;20022;-72
2020/12/21 12:44:14;;;;;;;10.88;2.55;;;9.10;80.80;;;;;;5017487;28;20025;-73
2020/12/21 12:46:40;;;;;;;11.30;2.85;;;9.00;80.80;;;;;;5019519;28;20080;-73